Time;durP1;ratioP1;P1;durP2;ratioP2;P2;SDS_P1;SDS_P2;PMS_P1;PMS_P2;Temp;Humidity;BMP_temperature;BMP_pressure;BME280_temperature;BME280_humidity;BME280_pressure;Samples;Min_cycle;Max_cycle;Signal;HPM_P1;HPM_P2
2022/11/20 00:01:33;;;;;;;31.17;12.38;;;-3.90;99.90;;;;;;4111388;28;20709;-74
2022/11/20 00:03:37;;;;;;;31.23;12.70;;;-3.90;99.90;;;;;;4108484;28;20199;-74
2022/11/20 00:05:39;;;;;;;31.52;13.40;;;-3.90;99.90;;;;;;4110007;28;20280;-73
2022/11/20 00:07:41;;;;;;;32.97;13.35;;;-3.90;99.90;;;;;;4106848;28;20297;-74
2022/11/20 00:09:43;;;;;;;30.52;11.63;;;-3.90;99.90;;;;;;4109517;28;20594;-74
2022/11/20 00:11:44;;;;;;;31.25;13.55;;;-4.00;99.90;;;;;;4110125;28;20656;-74
2022/11/20 00:13:48;;;;;;;31.48;13.60;;;-3.90;99.90;;;;;;4110888;28;20209;-74
2022/11/20 00:15:57;;;;;;;30.63;13.30;;;-4.00;99.90;;;;;;4111081;28;20204;-74
2022/11/20 00:17:59;;;;;;;38.97;12.98;;;-4.00;99.90;;;;;;4110719;28;20912;-74
2022/11/20 00:20:02;;;;;;;36.13;13.55;;;-4.00;99.90;;;;;;4106580;28;20619;-74
2022/11/20 00:22:04;;;;;;;30.15;12.63;;;-4.00;99.90;;;;;;4121576;28;20239;-74
2022/11/20 00:24:09;;;;;;;32.88;13.38;;;-4.00;99.90;;;;;;4104718;28;20206;-74
2022/11/20 00:26:17;;;;;;;30.90;12.63;;;-4.00;99.90;;;;;;4108699;28;20220;-74
2022/11/20 00:28:20;;;;;;;31.95;12.73;;;-4.00;99.90;;;;;;4107838;28;20208;-74
2022/11/20 00:30:22;;;;;;;32.08;12.32;;;-4.10;99.90;;;;;;4105961;28;20654;-74
2022/11/20 00:32:24;;;;;;;29.23;12.25;;;-4.00;99.90;;;;;;4102912;28;20228;-74
2022/11/20 00:34:26;;;;;;;33.67;12.88;;;-4.10;99.90;;;;;;4105481;28;20680;-74
2022/11/20 00:36:32;;;;;;;30.88;13.05;;;-4.10;99.90;;;;;;4105460;28;20205;-74
2022/11/20 00:38:35;;;;;;;33.40;13.63;;;-4.10;99.90;;;;;;4102829;28;20272;-74
2022/11/20 00:40:37;;;;;;;34.35;13.18;;;-4.10;99.90;;;;;;4105513;28;20908;-73
2022/11/20 00:42:39;;;;;;;32.15;12.55;;;-4.10;99.90;;;;;;4115902;28;20779;-74
2022/11/20 00:44:41;;;;;;;31.25;13.55;;;-4.10;99.90;;;;;;4105248;28;20232;-74
2022/11/20 00:46:43;;;;;;;34.10;13.32;;;-4.20;99.90;;;;;;4104181;28;20689;-76
2022/11/20 00:48:46;;;;;;;27.55;11.63;;;-4.20;99.90;;;;;;4103788;28;20206;-74
2022/11/20 00:50:50;;;;;;;30.08;11.85;;;-4.20;99.90;;;;;;4105658;28;20224;-73
2022/11/20 00:52:54;;;;;;;34.67;13.73;;;-4.20;99.90;;;;;;4106340;28;20289;-74
2022/11/20 00:54:56;;;;;;;31.45;12.13;;;-4.20;99.90;;;;;;4106435;28;20212;-74
2022/11/20 00:56:58;;;;;;;32.88;12.85;;;-4.20;99.90;;;;;;4105722;28;20217;-73
2022/11/20 00:59:02;;;;;;;31.38;13.20;;;-4.30;99.90;;;;;;4104249;28;20686;-73
2022/11/20 01:01:06;;;;;;;28.88;11.75;;;-4.20;99.90;;;;;;4103054;28;20217;-73
2022/11/20 01:03:08;;;;;;;29.45;11.95;;;-4.30;99.90;;;;;;4112660;28;20691;-73
2022/11/20 01:05:10;;;;;;;27.17;11.68;;;-4.20;99.90;;;;;;4106248;28;20214;-73
2022/11/20 01:07:12;;;;;;;32.20;12.27;;;-4.30;99.90;;;;;;4120560;28;20205;-74
2022/11/20 01:09:16;;;;;;;29.85;12.80;;;-4.30;99.90;;;;;;4105659;28;20205;-73
2022/11/20 01:11:19;;;;;;;30.55;12.10;;;-4.30;99.90;;;;;;4105873;28;20248;-74
2022/11/20 01:13:40;;;;;;;27.40;11.02;;;-4.30;99.90;;;;;;4121085;28;20215;-74
2022/11/20 01:15:42;;;;;;;29.92;12.00;;;-4.30;99.90;;;;;;4108162;28;20264;-73
2022/11/20 01:17:44;;;;;;;26.98;11.68;;;-4.40;99.90;;;;;;4102680;28;20217;-74
2022/11/20 01:19:49;;;;;;;31.63;11.43;;;-4.40;99.90;;;;;;4108311;28;20197;-74
2022/11/20 01:21:53;;;;;;;33.30;12.80;;;-4.30;99.90;;;;;;4106793;28;20307;-74
2022/11/20 01:23:55;;;;;;;28.73;12.10;;;-4.40;99.90;;;;;;4121223;28;20205;-73
2022/11/20 01:26:03;;;;;;;33.33;12.75;;;-4.40;99.90;;;;;;4105217;28;20207;-74
2022/11/20 01:28:05;;;;;;;25.10;10.82;;;-4.40;99.90;;;;;;4105628;28;20269;-74
2022/11/20 01:30:08;;;;;;;32.55;12.68;;;-4.50;99.90;;;;;;4105200;28;20986;-73
2022/11/20 01:32:10;;;;;;;30.48;13.38;;;-4.40;99.90;;;;;;4104005;28;20375;-74
2022/11/20 01:34:14;;;;;;;27.90;11.32;;;-4.40;99.90;;;;;;4106204;28;20247;-73
2022/11/20 01:36:18;;;;;;;32.80;12.65;;;-4.40;99.90;;;;;;4103837;28;20806;-74
2022/11/20 01:38:22;;;;;;;28.48;12.05;;;-4.20;99.90;;;;;;4103660;28;20221;-73
2022/11/20 01:40:24;;;;;;;31.77;12.52;;;-4.40;99.90;;;;;;4102640;28;20309;-73
2022/11/20 01:44:52;;;;;;;31.55;12.82;;;-4.40;99.90;;;;;;4106593;28;20219;-74
2022/11/20 01:46:58;;;;;;;32.45;12.50;;;-4.40;99.90;;;;;;4102566;28;20217;-73
2022/11/20 01:49:05;;;;;;;31.67;11.75;;;-4.50;99.90;;;;;;4106333;28;20883;-73
2022/11/20 01:51:13;;;;;;;34.30;11.98;;;-4.50;99.90;;;;;;4105156;28;20316;-74
2022/11/20 01:53:19;;;;;;;27.35;11.75;;;-4.50;99.90;;;;;;4102495;28;20217;-73
2022/11/20 01:55:26;;;;;;;30.67;12.43;;;-4.50;99.90;;;;;;4105517;28;20285;-74
2022/11/20 01:57:32;;;;;;;30.65;12.07;;;-4.50;99.90;;;;;;4102839;28;20216;-74
2022/11/20 01:59:37;;;;;;;31.77;12.57;;;-4.60;99.90;;;;;;4102348;28;20235;-73
2022/11/20 02:01:39;;;;;;;28.00;11.50;;;-4.60;99.90;;;;;;4104743;28;20776;-73
2022/11/20 02:03:42;;;;;;;32.70;12.75;;;-4.60;99.90;;;;;;4106771;28;20220;-74
2022/11/20 02:05:48;;;;;;;28.27;12.25;;;-4.60;99.90;;;;;;4105790;28;20236;-73
2022/11/20 02:07:51;;;;;;;27.90;11.88;;;-4.60;99.90;;;;;;4104075;28;20748;-73
2022/11/20 02:09:53;;;;;;;30.27;12.88;;;-4.60;99.90;;;;;;4104627;28;20954;-73
2022/11/20 02:11:55;;;;;;;33.20;13.13;;;-4.60;99.90;;;;;;4098192;28;20311;-73
2022/11/20 02:13:58;;;;;;;32.17;11.98;;;-4.50;99.90;;;;;;4100128;28;20211;-71
2022/11/20 02:16:00;;;;;;;28.35;12.63;;;-4.50;99.90;;;;;;4104621;28;20699;-73
2022/11/20 02:18:03;;;;;;;32.78;11.90;;;-4.50;99.90;;;;;;4104125;28;20299;-73
2022/11/20 02:20:06;;;;;;;29.77;12.23;;;-4.60;99.90;;;;;;4104937;28;20675;-73
2022/11/20 02:22:13;;;;;;;32.50;12.52;;;-4.60;99.90;;;;;;4101552;28;20326;-73
2022/11/20 02:24:18;;;;;;;36.45;13.90;;;-4.60;99.90;;;;;;4104746;28;20318;-73
2022/11/20 02:26:21;;;;;;;29.45;12.13;;;-4.60;99.90;;;;;;4104637;28;20223;-73
2022/11/20 02:28:24;;;;;;;33.33;13.32;;;-4.60;99.90;;;;;;4103018;28;20215;-73
2022/11/20 02:30:26;;;;;;;31.58;13.20;;;-4.60;99.90;;;;;;4102688;28;20231;-73
2022/11/20 02:32:30;;;;;;;29.55;11.57;;;-4.60;99.90;;;;;;4105182;28;20247;-73
2022/11/20 02:34:32;;;;;;;29.75;11.35;;;-4.70;99.90;;;;;;4099527;28;20220;-73
2022/11/20 02:36:37;;;;;;;28.42;11.63;;;-4.70;99.90;;;;;;4103841;28;20305;-74
2022/11/20 02:38:39;;;;;;;30.50;13.05;;;-4.70;99.90;;;;;;4103039;28;20707;-73
2022/11/20 02:40:43;;;;;;;30.48;11.65;;;-4.70;99.90;;;;;;4104362;28;20712;-73
2022/11/20 02:42:44;;;;;;;35.00;12.48;;;-4.80;99.90;;;;;;4104905;28;20262;-73
2022/11/20 02:44:46;;;;;;;30.60;12.30;;;-4.70;99.90;;;;;;4108509;28;20228;-74
2022/11/20 02:46:48;;;;;;;33.05;12.98;;;-4.70;99.90;;;;;;4103939;28;20263;-73
2022/11/20 02:48:50;;;;;;;32.40;12.57;;;-4.70;99.90;;;;;;4103517;28;20416;-73
2022/11/20 02:50:52;;;;;;;32.65;13.07;;;-4.70;99.90;;;;;;4105992;28;20328;-73
2022/11/20 02:52:56;;;;;;;31.88;12.73;;;-4.70;99.90;;;;;;4102599;28;20239;-73
2022/11/20 02:54:58;;;;;;;30.17;11.65;;;-4.70;99.90;;;;;;4100925;28;20213;-73
2022/11/20 02:57:02;;;;;;;31.95;12.27;;;-4.70;99.90;;;;;;4103594;28;20440;-73
2022/11/20 02:59:04;;;;;;;29.73;12.07;;;-4.70;99.90;;;;;;4106063;28;20212;-73
2022/11/20 03:01:06;;;;;;;36.97;13.35;;;-4.80;99.90;;;;;;4104233;28;20251;-73
2022/11/20 03:03:08;;;;;;;32.47;13.13;;;-4.80;99.90;;;;;;4102796;28;20222;-73
2022/11/20 03:05:12;;;;;;;34.38;12.70;;;-4.80;99.90;;;;;;4102618;28;20304;-73
2022/11/20 03:07:13;;;;;;;30.48;12.43;;;-4.80;99.90;;;;;;4100528;28;20215;-73
2022/11/20 03:09:15;;;;;;;29.23;11.82;;;-4.70;99.90;;;;;;4107222;28;20308;-73
2022/11/20 03:11:17;;;;;;;30.33;12.68;;;-4.80;99.90;;;;;;4102905;28;20242;-73
2022/11/20 03:13:21;;;;;;;34.67;12.45;;;-4.80;99.90;;;;;;4104849;28;20903;-73
2022/11/20 03:15:23;;;;;;;28.67;12.55;;;-4.80;99.90;;;;;;4097917;28;20245;-73
2022/11/20 03:17:24;;;;;;;28.20;11.35;;;-4.80;99.90;;;;;;4102964;28;20217;-73
2022/11/20 03:19:26;;;;;;;32.17;12.25;;;-4.90;99.90;;;;;;4100393;28;20249;-73
2022/11/20 03:21:28;;;;;;;35.42;12.57;;;-4.90;99.90;;;;;;4103716;28;20235;-73
2022/11/20 03:23:32;;;;;;;34.75;12.68;;;-4.90;99.90;;;;;;4106774;28;20210;-73
2022/11/20 03:25:34;;;;;;;32.15;12.75;;;-4.90;99.90;;;;;;4104965;28;20232;-73
2022/11/20 03:27:36;;;;;;;31.25;13.07;;;-4.80;99.90;;;;;;4104984;28;20252;-74
2022/11/20 03:29:39;;;;;;;33.72;12.80;;;-4.80;99.90;;;;;;4105303;28;20219;-72
2022/11/20 03:31:42;;;;;;;37.03;13.85;;;-4.80;99.90;;;;;;4105932;28;20307;-73
2022/11/20 03:33:44;;;;;;;33.80;12.80;;;-4.80;99.90;;;;;;4109127;28;20245;-73
2022/11/20 03:35:46;;;;;;;31.85;13.15;;;-4.90;99.90;;;;;;4106063;28;20275;-73
2022/11/20 03:37:48;;;;;;;28.90;11.90;;;-4.80;99.90;;;;;;4110476;28;20302;-73
2022/11/20 03:39:50;;;;;;;33.38;12.65;;;-4.90;99.90;;;;;;4112863;28;20235;-73
2022/11/20 03:41:52;;;;;;;34.00;13.20;;;-4.90;99.90;;;;;;4110078;28;20339;-74
2022/11/20 03:43:56;;;;;;;37.20;13.38;;;-4.90;99.90;;;;;;4110730;28;20290;-73
2022/11/20 03:45:59;;;;;;;31.52;12.88;;;-4.90;99.90;;;;;;4110021;28;20219;-73
2022/11/20 03:48:01;;;;;;;39.50;13.45;;;-4.90;99.90;;;;;;4107389;28;20227;-73
2022/11/20 03:50:03;;;;;;;32.42;12.50;;;-4.90;99.90;;;;;;4111953;28;20225;-73
2022/11/20 03:52:05;;;;;;;34.13;12.93;;;-4.90;99.90;;;;;;4109648;28;20761;-73
2022/11/20 03:54:08;;;;;;;35.55;12.48;;;-4.90;99.90;;;;;;4104527;28;20222;-73
2022/11/20 03:56:12;;;;;;;30.52;12.13;;;-4.90;99.90;;;;;;4106924;28;20336;-73
2022/11/20 03:58:14;;;;;;;29.15;12.25;;;-5.00;99.90;;;;;;4106767;28;20219;-73
2022/11/20 04:00:16;;;;;;;34.33;13.10;;;-4.90;99.90;;;;;;4105708;28;20669;-73
2022/11/20 04:02:20;;;;;;;35.00;12.60;;;-5.00;99.90;;;;;;4105278;28;20252;-73
2022/11/20 04:04:22;;;;;;;31.33;12.23;;;-5.00;99.90;;;;;;4104822;28;20676;-73
2022/11/20 04:06:25;;;;;;;34.40;13.82;;;-5.00;99.90;;;;;;4105210;28;20207;-73
2022/11/20 04:08:28;;;;;;;35.92;13.60;;;-5.00;99.90;;;;;;4105649;28;20675;-73
2022/11/20 04:10:30;;;;;;;35.80;13.35;;;-5.00;99.90;;;;;;4104003;28;20313;-73
2022/11/20 04:12:34;;;;;;;30.92;13.15;;;-5.00;99.90;;;;;;4106293;28;20776;-73
2022/11/20 04:14:36;;;;;;;34.45;13.60;;;-5.00;99.90;;;;;;4106897;28;20216;-73
2022/11/20 04:16:38;;;;;;;43.53;13.85;;;-5.10;99.90;;;;;;4106973;28;20691;-73
2022/11/20 04:18:41;;;;;;;36.72;14.20;;;-5.10;99.90;;;;;;4105316;28;20906;-73
2022/11/20 04:20:45;;;;;;;36.80;14.00;;;-5.10;99.90;;;;;;4107962;28;20293;-73
2022/11/20 04:22:47;;;;;;;36.90;14.50;;;-5.10;99.90;;;;;;4107273;28;20229;-73
2022/11/20 04:24:48;;;;;;;39.53;14.40;;;-5.10;99.90;;;;;;4108345;28;20216;-73
2022/11/20 04:26:50;;;;;;;36.85;13.20;;;-5.10;99.90;;;;;;4108376;28;20217;-73
2022/11/20 04:28:53;;;;;;;43.88;15.50;;;-5.10;99.90;;;;;;4106400;28;20228;-73
2022/11/20 04:30:55;;;;;;;38.22;14.35;;;-5.10;99.90;;;;;;4104881;28;20230;-73
2022/11/20 04:32:57;;;;;;;37.63;13.52;;;-5.10;99.90;;;;;;4103246;28;20241;-73
2022/11/20 04:35:00;;;;;;;34.47;13.70;;;-5.10;99.90;;;;;;4106331;28;20238;-73
2022/11/20 04:37:02;;;;;;;41.20;15.18;;;-5.10;99.90;;;;;;4105689;28;20757;-73
2022/11/20 04:39:06;;;;;;;39.25;14.55;;;-5.10;99.90;;;;;;4107683;28;20214;-73
2022/11/20 04:41:14;;;;;;;39.20;15.57;;;-5.20;99.90;;;;;;4105502;28;20207;-73
2022/11/20 04:43:16;;;;;;;40.88;15.35;;;-5.10;99.90;;;;;;4105008;28;20215;-73
2022/11/20 04:45:19;;;;;;;44.50;14.65;;;-5.10;99.90;;;;;;4103620;28;20306;-73
2022/11/20 04:47:21;;;;;;;36.00;14.13;;;-5.10;99.90;;;;;;4105149;28;20227;-73
2022/11/20 04:49:23;;;;;;;43.08;15.10;;;-5.10;99.90;;;;;;4106713;28;20226;-73
2022/11/20 04:51:27;;;;;;;42.25;15.23;;;-5.10;99.90;;;;;;4106354;28;20296;-73
2022/11/20 04:53:29;;;;;;;42.97;14.85;;;-5.10;99.90;;;;;;4106491;28;20312;-73
2022/11/20 04:55:31;;;;;;;44.20;15.55;;;-5.10;99.90;;;;;;4106566;28;20718;-73
2022/11/20 04:57:33;;;;;;;41.10;14.98;;;-5.10;99.90;;;;;;4105939;28;20636;-73
2022/11/20 04:59:37;;;;;;;39.55;14.77;;;-5.10;99.90;;;;;;4104215;28;20305;-73
2022/11/20 05:01:39;;;;;;;37.03;15.43;;;-5.10;99.90;;;;;;4105510;28;20261;-72
2022/11/20 05:03:41;;;;;;;43.03;15.50;;;-5.10;99.90;;;;;;4107011;28;20317;-73
2022/11/20 05:05:43;;;;;;;34.10;13.98;;;-5.10;99.90;;;;;;4103598;28;20215;-73
2022/11/20 05:07:46;;;;;;;44.03;15.98;;;-5.20;99.90;;;;;;4104346;28;20321;-73
2022/11/20 05:09:48;;;;;;;46.00;15.63;;;-5.20;99.90;;;;;;4103893;28;20244;-73
2022/11/20 05:11:50;;;;;;;44.65;16.30;;;-5.20;99.90;;;;;;4105935;28;20716;-73
2022/11/20 05:13:53;;;;;;;43.13;14.95;;;-5.10;99.90;;;;;;4102912;28;20595;-73
2022/11/20 05:15:54;;;;;;;44.13;16.35;;;-5.20;99.90;;;;;;4103895;28;20219;-73
2022/11/20 05:17:56;;;;;;;48.15;16.15;;;-5.10;99.90;;;;;;4106210;28;20273;-73
2022/11/20 05:19:58;;;;;;;43.28;16.17;;;-5.20;99.90;;;;;;4105671;28;20299;-73
2022/11/20 05:22:00;;;;;;;41.42;15.80;;;-5.20;99.90;;;;;;4111942;28;21768;-73
2022/11/20 05:24:04;;;;;;;44.20;15.82;;;-5.10;99.90;;;;;;4103934;28;20240;-73
2022/11/20 05:26:07;;;;;;;40.67;14.95;;;-5.20;99.90;;;;;;4102248;28;20211;-73
2022/11/20 05:28:09;;;;;;;42.13;15.93;;;-5.10;99.90;;;;;;4103882;28;20636;-73
2022/11/20 05:30:12;;;;;;;42.70;15.07;;;-5.10;99.90;;;;;;4106223;28;20270;-73
2022/11/20 05:32:14;;;;;;;44.58;15.23;;;-5.10;99.90;;;;;;4103833;28;20228;-73
2022/11/20 05:34:16;;;;;;;41.75;15.38;;;-5.10;99.90;;;;;;4107289;28;20265;-73
2022/11/20 05:36:18;;;;;;;37.83;15.23;;;-5.20;99.90;;;;;;4120347;28;20240;-73
2022/11/20 05:38:20;;;;;;;45.25;15.30;;;-5.20;99.90;;;;;;4104446;28;20218;-73
2022/11/20 05:40:24;;;;;;;45.72;15.60;;;-5.20;99.90;;;;;;4102799;28;20487;-73
2022/11/20 05:42:31;;;;;;;43.08;15.65;;;-5.20;99.90;;;;;;4101504;28;20250;-73
2022/11/20 05:44:33;;;;;;;40.00;15.43;;;-5.20;99.90;;;;;;4105414;28;20215;-73
2022/11/20 05:46:35;;;;;;;45.58;16.40;;;-5.20;99.90;;;;;;4106622;28;20204;-73
2022/11/20 05:48:38;;;;;;;47.95;16.23;;;-5.20;99.90;;;;;;4107425;28;20219;-73
2022/11/20 05:50:40;;;;;;;40.15;15.88;;;-5.20;99.90;;;;;;4104355;28;20234;-73
2022/11/20 05:52:42;;;;;;;45.67;16.50;;;-5.20;99.90;;;;;;4105629;28;20756;-73
2022/11/20 05:54:44;;;;;;;43.35;15.70;;;-5.20;99.90;;;;;;4110579;28;20653;-73
2022/11/20 05:56:47;;;;;;;41.85;15.18;;;-5.20;99.90;;;;;;4101596;28;20609;-73
2022/11/20 05:58:52;;;;;;;39.28;14.25;;;-5.30;99.90;;;;;;4103830;28;20211;-73
2022/11/20 06:00:54;;;;;;;45.13;15.98;;;-5.30;99.90;;;;;;4103160;28;20756;-73
2022/11/20 06:02:56;;;;;;;46.88;16.35;;;-5.30;99.90;;;;;;4105453;28;20241;-73
2022/11/20 06:04:58;;;;;;;46.60;17.92;;;-5.30;99.90;;;;;;4104068;28;20616;-73
2022/11/20 06:06:59;;;;;;;40.47;14.80;;;-5.30;99.90;;;;;;4104427;28;20335;-73
2022/11/20 06:09:01;;;;;;;38.25;14.73;;;-5.30;99.90;;;;;;4102692;28;20232;-73
2022/11/20 06:11:08;;;;;;;41.75;15.50;;;-5.30;99.90;;;;;;4101889;28;20303;-73
2022/11/20 06:13:11;;;;;;;39.78;14.43;;;-5.30;99.90;;;;;;4105056;28;20251;-73
2022/11/20 06:15:13;;;;;;;41.72;14.43;;;-5.30;99.90;;;;;;4104170;28;20228;-73
2022/11/20 06:17:15;;;;;;;45.28;16.08;;;-5.30;99.90;;;;;;4104795;28;20223;-73
2022/11/20 06:19:17;;;;;;;39.03;14.77;;;-5.30;99.90;;;;;;4098668;28;20726;-74
2022/11/20 06:21:21;;;;;;;42.67;15.30;;;-5.40;99.90;;;;;;4104751;28;20226;-73
2022/11/20 06:23:23;;;;;;;44.47;15.48;;;-5.40;99.90;;;;;;4107668;28;20315;-73
2022/11/20 06:25:27;;;;;;;39.65;15.07;;;-5.40;99.90;;;;;;4105173;28;20238;-73
2022/11/20 06:27:29;;;;;;;49.28;17.65;;;-5.40;99.90;;;;;;4107593;28;20211;-73
2022/11/20 06:29:32;;;;;;;43.92;16.35;;;-5.40;99.90;;;;;;4105577;28;20212;-73
2022/11/20 06:31:37;;;;;;;47.58;15.75;;;-5.40;99.90;;;;;;4102125;28;20339;-73
2022/11/20 06:33:39;;;;;;;46.90;16.08;;;-5.40;99.90;;;;;;4103648;28;20594;-73
2022/11/20 06:35:41;;;;;;;42.88;15.50;;;-5.40;99.90;;;;;;4102210;28;20246;-73
2022/11/20 06:37:43;;;;;;;45.97;15.35;;;-5.50;99.90;;;;;;4105497;28;20211;-73
2022/11/20 06:39:45;;;;;;;44.50;15.57;;;-5.40;99.90;;;;;;4107031;28;20216;-73
2022/11/20 06:41:48;;;;;;;45.85;15.95;;;-5.50;99.90;;;;;;4104266;28;20722;-73
2022/11/20 06:43:50;;;;;;;56.67;17.27;;;-5.50;99.90;;;;;;4103842;28;20219;-73
2022/11/20 06:45:55;;;;;;;40.35;14.82;;;-5.50;99.90;;;;;;4108299;28;20206;-73
2022/11/20 06:47:58;;;;;;;46.92;16.65;;;-5.40;99.90;;;;;;4104209;28;20688;-73
2022/11/20 06:50:00;;;;;;;53.50;17.05;;;-5.40;99.90;;;;;;4104605;28;20704;-73
2022/11/20 06:52:02;;;;;;;44.83;16.60;;;-5.40;99.90;;;;;;4098544;28;20945;-74
2022/11/20 06:54:04;;;;;;;43.88;15.13;;;-5.50;99.90;;;;;;4107154;28;20714;-73
2022/11/20 06:56:08;;;;;;;44.72;16.30;;;-5.50;99.90;;;;;;4106563;28;20208;-74
2022/11/20 06:58:10;;;;;;;48.75;16.48;;;-5.50;99.90;;;;;;4103503;28;20224;-74
2022/11/20 07:00:15;;;;;;;45.22;16.63;;;-5.50;99.90;;;;;;4103305;28;20713;-74
2022/11/20 07:02:18;;;;;;;46.13;14.90;;;-5.50;99.90;;;;;;4103555;28;20228;-73
2022/11/20 07:04:20;;;;;;;46.00;17.67;;;-5.50;99.90;;;;;;4103036;28;20261;-74
2022/11/20 07:06:24;;;;;;;46.50;15.43;;;-5.50;99.90;;;;;;4104745;28;20578;-74
2022/11/20 07:08:26;;;;;;;46.50;16.25;;;-5.50;99.90;;;;;;4104328;28;20707;-74
2022/11/20 07:10:28;;;;;;;44.22;15.93;;;-5.50;99.90;;;;;;4100283;28;20207;-74
2022/11/20 07:12:30;;;;;;;38.42;14.32;;;-5.50;99.90;;;;;;4097683;28;20262;-74
2022/11/20 07:14:32;;;;;;;42.67;15.43;;;-5.50;99.90;;;;;;4118312;28;20213;-74
2022/11/20 07:16:34;;;;;;;41.63;16.00;;;-5.50;99.90;;;;;;4103395;28;20253;-74
2022/11/20 07:18:38;;;;;;;41.55;14.48;;;-5.50;99.90;;;;;;4101417;28;20228;-74
2022/11/20 07:20:40;;;;;;;46.88;16.35;;;-5.40;99.90;;;;;;4110720;28;20711;-74
2022/11/20 07:22:42;;;;;;;46.33;15.68;;;-5.40;99.90;;;;;;4115208;28;20224;-74
2022/11/20 07:24:44;;;;;;;43.95;16.05;;;-5.40;99.90;;;;;;4101438;28;20392;-74
2022/11/20 07:26:49;;;;;;;45.63;15.38;;;-5.40;99.90;;;;;;4104890;28;20199;-74
2022/11/20 07:28:51;;;;;;;45.42;16.23;;;-5.40;99.90;;;;;;4101690;28;20207;-74
2022/11/20 07:30:54;;;;;;;46.10;15.85;;;-5.40;99.90;;;;;;4104457;28;20318;-74
2022/11/20 07:32:56;;;;;;;43.05;16.45;;;-5.40;99.90;;;;;;4103666;28;20400;-74
2022/11/20 07:35:00;;;;;;;39.88;14.55;;;-5.40;99.90;;;;;;4105279;28;20230;-74
2022/11/20 07:37:02;;;;;;;42.40;15.70;;;-5.40;99.90;;;;;;4106389;28;20204;-74
2022/11/20 07:39:07;;;;;;;47.92;16.27;;;-5.40;99.90;;;;;;4107752;28;20329;-74
2022/11/20 07:41:11;;;;;;;47.70;17.02;;;-5.40;99.90;;;;;;4108668;28;20263;-74
2022/11/20 07:43:13;;;;;;;48.78;17.30;;;-4.20;99.90;;;;;;4107433;28;20619;-74
2022/11/20 07:45:15;;;;;;;44.97;16.17;;;-5.10;99.90;;;;;;4107135;28;20278;-74
2022/11/20 07:47:17;;;;;;;45.53;16.60;;;-5.30;99.90;;;;;;4100448;28;20585;-74
2022/11/20 07:49:19;;;;;;;46.03;16.42;;;-5.30;99.90;;;;;;4106213;28;20249;-74
2022/11/20 07:51:23;;;;;;;43.47;16.35;;;-5.30;99.90;;;;;;4105813;28;20750;-74
2022/11/20 07:53:28;;;;;;;43.42;17.20;;;-5.40;99.90;;;;;;4120706;28;20243;-74
2022/11/20 07:55:30;;;;;;;47.08;15.80;;;-5.30;99.90;;;;;;4108986;28;20241;-74
2022/11/20 07:57:32;;;;;;;45.67;16.20;;;-4.80;99.90;;;;;;4103774;28;20257;-74
2022/11/20 07:59:36;;;;;;;42.63;15.73;;;-5.20;99.90;;;;;;4106840;28;20304;-74
2022/11/20 08:01:38;;;;;;;39.63;15.90;;;-4.90;99.90;;;;;;4105206;28;20242;-74
2022/11/20 08:03:40;;;;;;;48.10;16.23;;;-5.30;99.90;;;;;;4104283;28;20243;-74
2022/11/20 08:05:42;;;;;;;41.75;14.90;;;-5.20;99.90;;;;;;4105061;28;20655;-74
2022/11/20 08:07:45;;;;;;;44.00;16.08;;;-5.20;99.90;;;;;;4119380;28;20236;-74
2022/11/20 08:09:47;;;;;;;44.92;16.30;;;-5.10;99.90;;;;;;4107461;28;20240;-74
2022/11/20 08:14:15;;;;;;;40.03;14.50;;;-5.10;99.90;;;;;;4108179;28;20836;-74
2022/11/20 08:16:17;;;;;;;44.92;15.73;;;-5.10;99.90;;;;;;4104188;28;20267;-74
2022/11/20 08:18:19;;;;;;;43.50;16.85;;;-5.10;99.90;;;;;;4105001;28;20213;-74
2022/11/20 08:20:21;;;;;;;49.40;18.88;;;-5.10;99.90;;;;;;4112119;28;20216;-74
2022/11/20 08:22:24;;;;;;;46.17;17.60;;;-5.00;99.90;;;;;;4103544;28;20235;-74
2022/11/20 08:24:27;;;;;;;40.17;15.57;;;-5.00;99.90;;;;;;4107896;28;20206;-74
2022/11/20 08:26:29;;;;;;;42.15;16.33;;;-5.00;99.90;;;;;;4105964;28;20223;-74
2022/11/20 08:28:31;;;;;;;37.85;15.00;;;-5.00;99.90;;;;;;4104931;28;20280;-74
2022/11/20 08:30:34;;;;;;;43.28;17.25;;;-5.00;99.90;;;;;;4119787;28;20212;-74
2022/11/20 08:32:38;;;;;;;42.35;15.23;;;-4.90;99.90;;;;;;4101431;28;20262;-74
2022/11/20 08:34:40;;;;;;;43.95;15.25;;;-4.90;99.90;;;;;;4101846;28;20785;-74
2022/11/20 08:36:42;;;;;;;42.40;15.48;;;-4.90;99.90;;;;;;4105170;28;20231;-74
2022/11/20 08:38:48;;;;;;;40.22;14.73;;;-4.80;99.90;;;;;;4103941;28;20255;-74
2022/11/20 08:43:07;;;;;;;44.30;16.45;;;-4.70;99.90;;;;;;4106324;28;20799;-74
2022/11/20 08:45:09;;;;;;;43.20;15.80;;;-4.60;99.90;;;;;;4102883;28;20206;-74
2022/11/20 08:47:11;;;;;;;46.08;16.98;;;-4.60;99.90;;;;;;4102164;28;20219;-74
2022/11/20 08:49:14;;;;;;;47.28;16.58;;;-4.60;99.90;;;;;;4105031;28;20220;-75
2022/11/20 08:51:17;;;;;;;37.72;14.10;;;-4.50;99.90;;;;;;4116500;28;20224;-80
2022/11/20 08:53:19;;;;;;;38.08;15.25;;;-4.50;99.90;;;;;;4120205;28;20237;-77
2022/11/20 08:55:21;;;;;;;51.35;16.35;;;-4.50;99.90;;;;;;4101146;28;20233;-74
2022/11/20 08:57:24;;;;;;;40.22;14.70;;;-4.40;99.90;;;;;;4100956;28;20213;-74
2022/11/20 08:59:26;;;;;;;39.08;14.25;;;-4.40;99.90;;;;;;4101834;28;20220;-74
2022/11/20 09:01:30;;;;;;;39.17;15.65;;;-4.40;99.90;;;;;;4103847;28;20257;-74
2022/11/20 09:03:32;;;;;;;39.13;15.40;;;-4.30;99.90;;;;;;4118009;28;20214;-74
2022/11/20 09:05:34;;;;;;;40.58;14.40;;;-4.30;99.90;;;;;;4104709;28;20249;-74
2022/11/20 09:07:36;;;;;;;40.30;15.30;;;-4.20;99.90;;;;;;4103150;28;20322;-74
2022/11/20 09:09:38;;;;;;;38.38;14.93;;;-4.20;99.90;;;;;;4117066;28;20307;-74
2022/11/20 09:11:40;;;;;;;41.35;16.00;;;-4.20;99.90;;;;;;4100910;28;20323;-74
2022/11/20 09:13:43;;;;;;;44.30;15.32;;;-4.10;99.90;;;;;;4102029;28;20252;-74
2022/11/20 09:15:45;;;;;;;41.03;15.00;;;-4.20;99.90;;;;;;4116771;28;20220;-74
2022/11/20 09:17:52;;;;;;;33.95;14.77;;;-4.10;99.90;;;;;;4103637;28;20212;-74
2022/11/20 09:19:54;;;;;;;39.53;14.93;;;-4.10;99.90;;;;;;4104311;28;20990;-74
2022/11/20 09:21:56;;;;;;;40.38;15.13;;;-4.10;99.90;;;;;;4102651;28;20226;-74
2022/11/20 09:23:58;;;;;;;38.13;14.55;;;-4.00;99.90;;;;;;4105374;28;20587;-76
2022/11/20 09:26:03;;;;;;;39.50;14.75;;;-4.00;99.90;;;;;;4105278;28;20472;-74
2022/11/20 09:28:05;;;;;;;39.47;14.80;;;-3.90;99.90;;;;;;4122285;28;20769;-74
2022/11/20 09:30:09;;;;;;;37.88;14.32;;;-3.80;99.90;;;;;;4103886;28;20206;-74
2022/11/20 09:32:11;;;;;;;38.55;15.13;;;-3.80;99.90;;;;;;4103082;28;20266;-74
2022/11/20 09:34:13;;;;;;;41.50;14.82;;;-3.80;99.90;;;;;;4103915;28;20208;-74
2022/11/20 09:36:16;;;;;;;37.33;14.43;;;-3.70;99.90;;;;;;4100366;28;20280;-74
2022/11/20 09:38:18;;;;;;;40.92;14.88;;;-3.70;99.90;;;;;;4102570;28;20202;-74
2022/11/20 09:40:22;;;;;;;34.72;13.68;;;-3.70;99.90;;;;;;4103819;28;20311;-74
2022/11/20 09:42:34;;;;;;;34.85;13.93;;;-3.70;99.90;;;;;;4102858;28;20646;-74
2022/11/20 09:44:58;;;;;;;44.67;15.40;;;-3.60;99.90;;;;;;4101422;28;20253;-74
2022/11/20 09:47:06;;;;;;;39.47;15.15;;;-3.60;99.90;;;;;;4104843;28;20569;-74
2022/11/20 09:49:24;;;;;;;35.95;14.10;;;-3.50;99.90;;;;;;4102515;28;20256;-74
2022/11/20 09:51:36;;;;;;;34.47;13.43;;;-3.50;99.90;;;;;;4102612;28;20230;-74
2022/11/20 09:53:51;;;;;;;40.45;14.35;;;-3.50;99.90;;;;;;4101667;28;20264;-74
2022/11/20 09:55:53;;;;;;;39.45;14.63;;;-3.50;99.90;;;;;;4102025;28;20213;-74
2022/11/20 09:57:55;;;;;;;41.70;14.85;;;-3.40;99.90;;;;;;4100291;28;20209;-74
2022/11/20 10:00:01;;;;;;;40.90;14.38;;;-3.30;99.90;;;;;;4102874;28;20206;-74
2022/11/20 10:02:16;;;;;;;39.28;14.07;;;-3.30;99.90;;;;;;4099724;28;20292;-75
2022/11/20 10:04:21;;;;;;;42.30;16.17;;;-3.20;99.90;;;;;;4104379;28;20256;-74
2022/11/20 10:06:29;;;;;;;45.03;15.48;;;-3.20;99.90;;;;;;4103506;28;20604;-74
2022/11/20 10:08:40;;;;;;;45.95;15.88;;;-3.10;99.90;;;;;;4100890;28;20737;-74
2022/11/20 10:10:46;;;;;;;46.45;17.50;;;-3.10;99.90;;;;;;4102368;28;20868;-75
2022/11/20 10:13:02;;;;;;;52.13;18.10;;;-3.00;99.90;;;;;;4102643;28;20296;-74
2022/11/20 10:15:19;;;;;;;46.67;17.08;;;-2.90;99.90;;;;;;4103141;28;20204;-73
2022/11/20 10:17:52;;;;;;;43.33;16.80;;;-2.90;99.90;;;;;;4103341;28;20209;-73
2022/11/20 10:20:16;;;;;;;58.72;18.75;;;-2.80;99.90;;;;;;4105259;28;20625;-74
2022/11/20 10:22:36;;;;;;;50.28;18.80;;;-2.60;99.90;;;;;;4103654;28;20712;-74
2022/11/20 10:24:45;;;;;;;55.65;20.33;;;-2.60;99.90;;;;;;4100631;28;20212;-74
2022/11/20 10:26:56;;;;;;;52.97;19.50;;;-2.50;99.90;;;;;;4103220;28;20233;-74
2022/11/20 10:29:10;;;;;;;48.70;19.08;;;-2.30;99.90;;;;;;4104418;28;20444;-74
2022/11/20 10:31:18;;;;;;;49.78;18.00;;;-2.30;99.90;;;;;;4103619;28;20236;-74
2022/11/20 10:33:24;;;;;;;45.72;17.63;;;-2.20;99.90;;;;;;4103606;28;20378;-74
2022/11/20 10:35:33;;;;;;;43.90;17.50;;;-2.10;99.90;;;;;;4105337;28;20676;-74